Time;durP1;ratioP1;P1;durP2;ratioP2;P2;SDS_P1;SDS_P2;PMS_P1;PMS_P2;Temp;Humidity;BMP_temperature;BMP_pressure;BME280_temperature;BME280_humidity;BME280_pressure;Samples;Min_cycle;Max_cycle;Signal;HPM_P1;HPM_P2
2021/10/22 00:02:09;;;;;;;15.13;2.53;;;7.50;93.20;;;;;;5038281;28;20044;-74
2021/10/22 00:04:35;;;;;;;9.88;2.38;;;7.40;93.20;;;;;;5038199;28;20087;-74
2021/10/22 00:07:03;;;;;;;16.98;3.00;;;7.40;93.20;;;;;;5038314;28;20463;-74
2021/10/22 00:09:28;;;;;;;17.70;3.35;;;7.40;93.20;;;;;;5038520;28;20124;-74
2021/10/22 00:11:54;;;;;;;18.75;3.03;;;7.40;93.30;;;;;;5038371;28;20471;-74
2021/10/22 00:14:20;;;;;;;8.75;1.90;;;7.40;93.40;;;;;;5038239;28;20022;-73
2021/10/22 00:16:45;;;;;;;13.80;2.90;;;7.40;93.30;;;;;;5038529;28;20545;-73
2021/10/22 00:19:11;;;;;;;19.50;2.42;;;7.40;93.20;;;;;;5038127;28;20029;-73
2021/10/22 00:21:37;;;;;;;17.85;4.57;;;7.40;93.10;;;;;;5038110;28;20104;-73
2021/10/22 00:24:04;;;;;;;14.82;1.90;;;7.40;93.00;;;;;;5038453;28;20432;-73
2021/10/22 00:26:31;;;;;;;14.43;2.35;;;7.40;93.00;;;;;;5020463;28;20109;-73
2021/10/22 00:28:57;;;;;;;13.38;2.38;;;7.40;92.90;;;;;;5020471;28;20498;-73
2021/10/22 00:31:23;;;;;;;10.88;2.28;;;7.40;92.90;;;;;;5038643;28;20018;-73
2021/10/22 00:33:49;;;;;;;16.17;2.28;;;7.40;93.00;;;;;;5020246;28;20083;-73
2021/10/22 00:36:16;;;;;;;11.02;2.10;;;7.40;93.00;;;;;;5036459;28;20022;-74
2021/10/22 00:38:42;;;;;;;12.40;1.95;;;7.40;93.10;;;;;;5034768;28;20064;-74
2021/10/22 00:41:07;;;;;;;10.88;2.72;;;7.40;93.10;;;;;;5036372;28;20469;-73
2021/10/22 00:43:33;;;;;;;16.40;2.53;;;7.40;93.20;;;;;;5037152;28;20073;-73
2021/10/22 00:46:00;;;;;;;9.77;2.53;;;7.40;93.20;;;;;;5041301;28;20025;-73
2021/10/22 00:48:26;;;;;;;14.93;3.00;;;7.40;93.20;;;;;;5022612;28;20116;-73
2021/10/22 00:50:56;;;;;;;12.50;1.80;;;7.40;93.10;;;;;;5041727;28;20029;-72
2021/10/22 00:53:23;;;;;;;13.10;2.25;;;7.40;93.20;;;;;;5039472;28;20022;-72
2021/10/22 00:55:49;;;;;;;9.90;2.05;;;7.30;93.10;;;;;;5038959;28;20029;-72
2021/10/22 00:58:15;;;;;;;14.52;2.60;;;7.30;93.20;;;;;;5049124;28;20118;-73
2021/10/22 01:00:41;;;;;;;9.90;1.70;;;7.30;93.20;;;;;;5049449;28;20032;-72
2021/10/22 01:03:07;;;;;;;18.25;2.75;;;7.30;93.20;;;;;;5041697;28;20467;-72
2021/10/22 01:05:33;;;;;;;13.30;2.63;;;7.30;93.20;;;;;;5033736;28;20041;-73
2021/10/22 01:08:00;;;;;;;13.20;2.05;;;7.30;93.20;;;;;;5053527;28;20037;-73
2021/10/22 01:10:26;;;;;;;10.77;2.05;;;7.20;93.20;;;;;;5046040;28;20021;-72
2021/10/22 01:12:53;;;;;;;14.43;2.55;;;7.20;93.20;;;;;;5034411;28;20021;-72
2021/10/22 01:15:18;;;;;;;9.45;2.83;;;7.20;93.30;;;;;;5034356;28;20030;-73
2021/10/22 01:17:46;;;;;;;14.65;2.63;;;7.10;93.50;;;;;;5034210;28;20041;-73
2021/10/22 01:20:29;;;;;;;8.80;2.28;;;7.10;93.40;;;;;;5034356;28;20021;-72
2021/10/22 01:22:56;;;;;;;10.25;2.50;;;7.10;93.30;;;;;;5016234;28;20100;-72
2021/10/22 01:25:25;;;;;;;13.13;2.40;;;7.10;93.40;;;;;;5016540;28;20053;-73
2021/10/22 01:27:51;;;;;;;14.60;2.75;;;7.10;93.40;;;;;;5033669;28;20025;-72
2021/10/22 01:30:20;;;;;;;12.52;2.65;;;7.00;93.40;;;;;;5016503;28;20355;-73
2021/10/22 01:32:49;;;;;;;13.70;2.50;;;7.00;93.40;;;;;;5033952;28;20013;-73
2021/10/22 01:35:15;;;;;;;13.75;2.90;;;6.90;93.40;;;;;;5033810;28;20024;-73
2021/10/22 01:37:41;;;;;;;13.65;2.42;;;6.90;93.40;;;;;;5033748;28;20131;-72
2021/10/22 01:40:08;;;;;;;12.32;2.42;;;6.90;93.50;;;;;;5034021;28;20092;-72
2021/10/22 01:42:34;;;;;;;12.90;2.35;;;6.90;93.50;;;;;;5034168;28;20029;-72
2021/10/22 01:45:00;;;;;;;12.55;2.85;;;6.80;93.50;;;;;;5033493;28;20480;-73
2021/10/22 01:47:26;;;;;;;16.35;3.35;;;6.80;93.50;;;;;;5033565;28;20419;-73
2021/10/22 01:49:52;;;;;;;18.50;3.30;;;6.90;93.50;;;;;;5033199;28;20045;-73
2021/10/22 01:52:19;;;;;;;11.70;2.47;;;6.80;93.60;;;;;;5033571;28;20089;-72
2021/10/22 01:54:45;;;;;;;14.77;3.75;;;6.80;93.60;;;;;;5033454;28;20032;-73
2021/10/22 01:57:11;;;;;;;13.13;2.25;;;6.70;93.60;;;;;;5033733;28;20022;-73
2021/10/22 01:59:37;;;;;;;10.70;2.25;;;6.70;93.60;;;;;;5033727;28;20026;-73
2021/10/22 02:02:05;;;;;;;10.82;2.33;;;6.70;93.70;;;;;;5033384;28;20037;-72
2021/10/22 02:04:31;;;;;;;13.30;2.90;;;6.70;93.60;;;;;;5015794;28;20256;-73
2021/10/22 02:06:57;;;;;;;17.55;3.05;;;6.70;93.70;;;;;;5033240;28;20022;-73
2021/10/22 02:09:22;;;;;;;14.73;2.90;;;6.70;93.60;;;;;;5033451;28;20183;-73
2021/10/22 02:11:48;;;;;;;20.73;3.30;;;6.60;93.60;;;;;;5033196;28;20040;-73
2021/10/22 02:14:15;;;;;;;14.32;2.53;;;6.60;93.50;;;;;;5033606;28;20021;-73
2021/10/22 02:16:42;;;;;;;12.25;2.30;;;6.60;93.50;;;;;;5033439;28;20022;-73
2021/10/22 02:19:07;;;;;;;12.27;2.90;;;6.60;93.50;;;;;;5015279;28;20025;-73
2021/10/22 02:21:33;;;;;;;17.73;2.85;;;6.60;93.50;;;;;;5015398;28;20028;-73
2021/10/22 02:23:58;;;;;;;19.30;2.95;;;6.60;93.50;;;;;;5032663;28;20482;-73
2021/10/22 02:26:24;;;;;;;8.40;2.20;;;6.60;93.50;;;;;;5015140;28;20108;-73
2021/10/22 02:28:50;;;;;;;11.23;2.10;;;6.60;93.40;;;;;;5032739;28;20371;-73
2021/10/22 02:31:16;;;;;;;10.20;2.35;;;6.60;93.30;;;;;;5032840;28;20021;-73
2021/10/22 02:33:41;;;;;;;20.17;3.55;;;6.50;93.20;;;;;;5032779;28;20381;-73
2021/10/22 02:36:07;;;;;;;11.23;2.60;;;6.50;93.10;;;;;;5032459;28;20068;-73
2021/10/22 02:38:33;;;;;;;16.17;2.55;;;6.50;93.10;;;;;;5032926;28;20025;-73
2021/10/22 02:40:59;;;;;;;16.70;2.72;;;6.50;93.00;;;;;;5032468;28;20029;-72
2021/10/22 02:43:24;;;;;;;13.05;2.60;;;6.50;93.00;;;;;;5015295;28;20382;-73
2021/10/22 02:45:50;;;;;;;14.63;2.45;;;6.50;93.00;;;;;;5033000;28;20048;-73
2021/10/22 02:48:16;;;;;;;15.50;2.67;;;6.50;93.10;;;;;;5040996;28;20028;-73
2021/10/22 02:50:42;;;;;;;20.20;2.90;;;6.50;92.90;;;;;;5044115;28;20021;-72
2021/10/22 02:53:08;;;;;;;14.68;2.83;;;6.50;92.80;;;;;;5042202;28;20261;-73
2021/10/22 02:55:33;;;;;;;6.45;1.75;;;6.50;92.80;;;;;;5021732;28;20029;-73
2021/10/22 02:57:59;;;;;;;14.82;2.83;;;6.40;92.80;;;;;;5026465;28;20060;-73
2021/10/22 03:00:25;;;;;;;9.85;2.78;;;6.40;92.80;;;;;;5032200;28;20029;-73
2021/10/22 03:02:50;;;;;;;15.10;2.58;;;6.40;92.80;;;;;;5014531;28;20017;-73
2021/10/22 03:05:16;;;;;;;17.25;3.22;;;6.40;92.80;;;;;;5033858;28;20026;-73
2021/10/22 03:07:42;;;;;;;6.78;1.98;;;6.40;92.90;;;;;;5032694;28;20022;-73
2021/10/22 03:10:09;;;;;;;14.20;2.72;;;6.40;92.80;;;;;;5032393;28;20032;-73
2021/10/22 03:12:35;;;;;;;15.82;2.78;;;6.40;92.80;;;;;;5032462;28;20100;-73
2021/10/22 03:15:03;;;;;;;19.02;3.85;;;6.40;92.80;;;;;;5032162;28;20032;-73
2021/10/22 03:17:28;;;;;;;11.15;2.47;;;6.40;92.70;;;;;;5032091;28;20033;-73
2021/10/22 03:19:54;;;;;;;20.42;3.30;;;6.40;92.70;;;;;;5014285;28;20044;-73
2021/10/22 03:22:19;;;;;;;11.40;3.35;;;6.40;92.60;;;;;;5032457;28;20123;-72
2021/10/22 03:24:45;;;;;;;14.73;3.10;;;6.50;92.60;;;;;;5032365;28;20499;-74
2021/10/22 03:27:14;;;;;;;10.25;2.15;;;6.50;92.60;;;;;;5032011;28;20080;-73
2021/10/22 03:29:40;;;;;;;9.50;2.42;;;6.40;92.70;;;;;;5032273;28;20026;-73
2021/10/22 03:32:05;;;;;;;14.05;2.45;;;6.40;92.50;;;;;;5032028;28;20021;-73
2021/10/22 03:34:31;;;;;;;18.70;4.18;;;6.40;92.50;;;;;;5032236;28;20032;-73
2021/10/22 03:36:57;;;;;;;10.52;3.10;;;6.40;92.50;;;;;;5031725;28;20026;-73
2021/10/22 03:39:22;;;;;;;19.42;3.42;;;6.40;92.50;;;;;;5032061;28;20041;-73
2021/10/22 03:41:48;;;;;;;13.00;3.28;;;6.40;92.50;;;;;;5031925;28;20052;-73
2021/10/22 03:44:14;;;;;;;15.75;3.38;;;6.40;92.50;;;;;;5031864;28;20033;-73
2021/10/22 03:46:40;;;;;;;20.48;3.45;;;6.30;92.50;;;;;;5014481;28;20022;-73
2021/10/22 03:49:06;;;;;;;12.45;3.38;;;6.40;92.50;;;;;;5014273;28;20384;-72
2021/10/22 03:51:32;;;;;;;15.48;3.40;;;6.30;92.50;;;;;;5032497;28;20036;-72
2021/10/22 03:53:58;;;;;;;16.08;3.55;;;6.30;92.50;;;;;;5033004;28;20029;-73
2021/10/22 03:56:24;;;;;;;15.73;3.60;;;6.30;92.50;;;;;;5032421;28;20018;-73
2021/10/22 03:58:49;;;;;;;14.10;5.03;;;6.30;92.60;;;;;;5032048;28;20033;-73
2021/10/22 04:01:15;;;;;;;23.25;3.60;;;6.30;92.70;;;;;;5031800;28;20071;-72
2021/10/22 04:03:41;;;;;;;13.77;3.42;;;6.30;92.60;;;;;;5031935;28;20061;-73
2021/10/22 04:06:06;;;;;;;22.05;4.18;;;6.30;92.50;;;;;;5031728;28;20025;-73
2021/10/22 04:08:32;;;;;;;18.25;3.92;;;6.30;92.50;;;;;;5031947;28;20025;-73
2021/10/22 04:10:58;;;;;;;15.52;4.10;;;6.30;92.50;;;;;;5033244;28;20171;-73
2021/10/22 04:13:24;;;;;;;16.65;4.38;;;6.30;92.50;;;;;;5035645;28;20040;-72
2021/10/22 04:15:49;;;;;;;16.25;4.00;;;6.30;92.50;;;;;;5035682;28;20378;-73
2021/10/22 04:18:15;;;;;;;13.65;3.83;;;6.30;92.60;;;;;;5035650;28;20390;-73
2021/10/22 04:20:42;;;;;;;18.20;4.68;;;6.30;92.60;;;;;;5035250;28;20017;-71
2021/10/22 04:23:10;;;;;;;16.58;4.32;;;6.40;92.60;;;;;;5035120;28;20026;-72
2021/10/22 04:25:37;;;;;;;26.00;5.32;;;6.40;92.60;;;;;;5035519;28;20029;-73
2021/10/22 04:28:03;;;;;;;18.70;4.88;;;6.40;92.90;;;;;;5035302;28;20057;-73
2021/10/22 04:30:29;;;;;;;20.08;4.38;;;6.40;92.70;;;;;;5035179;28;20084;-73
2021/10/22 04:32:55;;;;;;;19.08;4.47;;;6.50;92.80;;;;;;5035083;28;20029;-73
2021/10/22 04:35:21;;;;;;;14.43;4.18;;;6.50;92.80;;;;;;5035895;28;20029;-73
2021/10/22 04:40:31;;;;;;;16.60;4.05;;;6.50;92.80;;;;;;5040959;28;20044;-71
2021/10/22 04:43:11;;;;;;;14.68;5.57;;;6.50;92.60;;;;;;5037622;28;20018;-74
2021/10/22 04:45:39;;;;;;;16.55;4.70;;;6.60;92.60;;;;;;5035260;28;20104;-72
2021/10/22 04:48:07;;;;;;;17.60;4.43;;;6.60;92.60;;;;;;5034630;28;20091;-72
2021/10/22 04:50:34;;;;;;;21.02;4.68;;;6.70;92.70;;;;;;5035159;28;20021;-73
2021/10/22 04:52:59;;;;;;;16.85;5.53;;;6.70;92.70;;;;;;5034849;28;20484;-73
2021/10/22 04:55:26;;;;;;;19.00;5.25;;;6.70;92.70;;;;;;5034886;28;20029;-72
2021/10/22 04:57:53;;;;;;;16.98;5.15;;;6.80;92.70;;;;;;5034794;28;20105;-72
2021/10/22 05:00:19;;;;;;;17.48;4.45;;;6.80;92.80;;;;;;5035314;28;20119;-73
2021/10/22 05:02:45;;;;;;;18.88;4.28;;;6.80;92.80;;;;;;5035349;28;20488;-72
2021/10/22 05:05:11;;;;;;;21.90;5.22;;;6.90;92.90;;;;;;5034789;28;20108;-72
2021/10/22 05:07:37;;;;;;;20.45;4.50;;;6.90;92.70;;;;;;5034754;28;20124;-72
2021/10/22 05:10:05;;;;;;;20.70;4.47;;;7.00;92.80;;;;;;5034102;28;20084;-73
2021/10/22 05:12:31;;;;;;;14.30;4.40;;;7.00;92.80;;;;;;5034581;28;20048;-73
2021/10/22 05:14:57;;;;;;;21.08;4.20;;;7.10;93.00;;;;;;5034258;28;20058;-73
2021/10/22 05:17:23;;;;;;;22.45;5.30;;;7.10;93.00;;;;;;5016663;28;20026;-73
2021/10/22 05:19:49;;;;;;;15.10;4.93;;;7.20;93.10;;;;;;5034349;28;20044;-73
2021/10/22 05:22:15;;;;;;;17.52;4.18;;;7.20;93.30;;;;;;5033660;28;20101;-73
2021/10/22 05:24:40;;;;;;;20.58;4.60;;;7.30;93.30;;;;;;5034317;28;20368;-72
2021/10/22 05:27:06;;;;;;;24.13;4.80;;;7.30;93.50;;;;;;5033863;28;20108;-73
2021/10/22 05:29:32;;;;;;;17.25;4.93;;;7.30;93.60;;;;;;5034220;28;20519;-72
2021/10/22 05:31:57;;;;;;;18.95;4.70;;;7.30;93.80;;;;;;5033583;28;20029;-74
2021/10/22 05:34:23;;;;;;;26.05;6.57;;;7.20;93.90;;;;;;5033699;28;20069;-72
2021/10/22 05:36:50;;;;;;;23.92;5.60;;;7.20;94.10;;;;;;5033961;28;20064;-74
2021/10/22 05:39:16;;;;;;;16.85;4.50;;;7.20;94.10;;;;;;5033693;28;20036;-73
2021/10/22 05:41:42;;;;;;;19.55;4.15;;;7.20;94.10;;;;;;5033957;28;20488;-73
2021/10/22 05:44:08;;;;;;;17.45;4.88;;;7.20;94.10;;;;;;5033715;28;20108;-73
2021/10/22 05:46:34;;;;;;;16.70;4.25;;;7.10;94.00;;;;;;5015942;28;20112;-71
2021/10/22 05:48:59;;;;;;;20.70;5.13;;;7.10;94.20;;;;;;5033745;28;20060;-73
2021/10/22 05:51:25;;;;;;;23.67;5.55;;;7.10;94.20;;;;;;5033562;28;20104;-73
2021/10/22 05:53:55;;;;;;;14.18;4.75;;;7.10;94.20;;;;;;5033642;28;20021;-74
2021/10/22 05:56:21;;;;;;;22.83;4.68;;;7.10;94.30;;;;;;5034227;28;20051;-73
2021/10/22 05:58:47;;;;;;;11.52;3.72;;;7.00;94.40;;;;;;5015835;28;20034;-73
2021/10/22 06:01:12;;;;;;;17.40;4.00;;;7.10;94.50;;;;;;5033216;28;20033;-74
2021/10/22 06:03:38;;;;;;;20.77;4.57;;;7.10;94.50;;;;;;5015852;28;20025;-73
2021/10/22 06:06:03;;;;;;;17.90;4.38;;;7.10;94.60;;;;;;5033131;28;20025;-73
2021/10/22 06:08:29;;;;;;;16.65;3.58;;;7.20;94.60;;;;;;5033617;28;20030;-73
2021/10/22 06:10:55;;;;;;;19.63;3.92;;;7.20;94.70;;;;;;5033196;28;20037;-72
2021/10/22 06:13:20;;;;;;;13.98;4.30;;;7.20;94.60;;;;;;5034055;28;20025;-72
2021/10/22 06:15:46;;;;;;;23.10;4.68;;;7.30;94.60;;;;;;5033595;28;20025;-71
2021/10/22 06:18:15;;;;;;;13.50;3.80;;;7.30;94.60;;;;;;5014993;28;20437;-72
2021/10/22 06:20:47;;;;;;;14.27;3.78;;;7.40;94.60;;;;;;5032992;28;20027;-72
2021/10/22 06:25:40;;;;;;;17.52;4.40;;;7.50;94.60;;;;;;5033301;28;20402;-73
2021/10/22 06:28:06;;;;;;;14.50;3.97;;;7.60;94.40;;;;;;5035697;28;20029;-72
2021/10/22 06:30:33;;;;;;;16.50;4.43;;;7.60;94.40;;;;;;5041375;28;20022;-74
2021/10/22 06:32:58;;;;;;;14.32;3.97;;;7.60;94.50;;;;;;5037808;28;20036;-72
2021/10/22 06:35:24;;;;;;;16.45;3.97;;;7.70;94.60;;;;;;5033670;28;20026;-73
2021/10/22 06:37:50;;;;;;;19.60;5.03;;;7.60;94.60;;;;;;5033781;28;20025;-73
2021/10/22 06:40:16;;;;;;;18.13;4.75;;;7.70;94.70;;;;;;5035879;28;20033;-73
2021/10/22 06:42:43;;;;;;;20.20;4.88;;;7.70;94.80;;;;;;5034766;28;20031;-74
2021/10/22 06:45:10;;;;;;;17.95;4.50;;;7.70;94.80;;;;;;5032575;28;20025;-73
2021/10/22 06:47:36;;;;;;;22.48;5.03;;;7.70;94.70;;;;;;5033183;28;20079;-72
2021/10/22 06:50:04;;;;;;;18.05;6.03;;;7.70;94.70;;;;;;5032986;28;20025;-73
2021/10/22 06:52:30;;;;;;;12.23;3.55;;;7.70;94.70;;;;;;5032865;28;20080;-72
2021/10/22 06:54:56;;;;;;;21.90;5.07;;;7.70;94.90;;;;;;5014570;28;20026;-74
2021/10/22 06:57:22;;;;;;;17.48;4.85;;;7.80;95.00;;;;;;5033482;28;20040;-73
2021/10/22 06:59:48;;;;;;;23.33;6.03;;;7.80;94.70;;;;;;5032574;28;20033;-73
2021/10/22 07:02:13;;;;;;;18.20;4.65;;;7.80;94.70;;;;;;5032512;28;20612;-73
2021/10/22 07:04:47;;;;;;;14.90;3.72;;;7.80;94.70;;;;;;5032155;28;20033;-72
2021/10/22 07:07:16;;;;;;;17.77;5.18;;;7.80;95.00;;;;;;5032349;28;20057;-73
2021/10/22 07:09:43;;;;;;;16.17;5.72;;;7.80;94.90;;;;;;5032342;28;20057;-73
2021/10/22 07:12:10;;;;;;;16.45;5.53;;;7.90;94.50;;;;;;5032125;28;20028;-74
2021/10/22 07:14:37;;;;;;;16.95;4.72;;;7.90;94.40;;;;;;5014454;28;20025;-73
2021/10/22 07:17:04;;;;;;;15.57;4.68;;;7.90;94.20;;;;;;5032281;28;20220;-73
2021/10/22 07:19:30;;;;;;;18.83;6.38;;;7.90;94.30;;;;;;5032487;28;20037;-73
2021/10/22 07:22:03;;;;;;;21.25;4.88;;;7.90;94.10;;;;;;5031592;28;20025;-74
2021/10/22 07:24:30;;;;;;;17.02;4.63;;;7.90;94.10;;;;;;5032015;28;20022;-73
2021/10/22 07:26:55;;;;;;;24.17;6.35;;;7.90;94.00;;;;;;5031719;28;20489;-72
2021/10/22 07:29:21;;;;;;;21.38;6.15;;;7.90;93.80;;;;;;5014288;28;20087;-73
2021/10/22 07:31:46;;;;;;;19.05;4.93;;;8.00;93.90;;;;;;5032050;28;20077;-74
2021/10/22 07:34:14;;;;;;;14.38;5.28;;;8.40;94.50;;;;;;5031869;28;20061;-73
2021/10/22 07:36:40;;;;;;;17.13;4.60;;;9.20;92.50;;;;;;5031814;28;20540;-73
2021/10/22 07:39:06;;;;;;;13.43;4.10;;;9.90;90.70;;;;;;5031849;28;20029;-74
2021/10/22 07:41:33;;;;;;;14.38;3.50;;;;;;;;;;5032115;28;20100;-73
2021/10/22 07:43:59;;;;;;;15.07;4.35;;;10.40;86.90;;;;;;5031834;28;20422;-73
2021/10/22 07:46:25;;;;;;;12.27;4.10;;;10.00;88.30;;;;;;5034385;28;20415;-73
2021/10/22 07:48:50;;;;;;;14.13;4.60;;;9.70;90.00;;;;;;5035954;28;20354;-73
2021/10/22 07:51:16;;;;;;;15.75;4.18;;;9.30;90.50;;;;;;5035736;28;20033;-73
2021/10/22 07:53:42;;;;;;;16.95;3.83;;;9.10;91.00;;;;;;5036139;28;20030;-73
2021/10/22 07:56:08;;;;;;;15.93;4.35;;;9.00;91.30;;;;;;5035565;28;20374;-73
2021/10/22 07:58:34;;;;;;;14.35;4.22;;;8.90;91.50;;;;;;5035345;28;20482;-73
2021/10/22 08:01:01;;;;;;;15.32;4.25;;;8.90;92.00;;;;;;5035655;28;20474;-72
2021/10/22 08:03:26;;;;;;;15.13;4.25;;;8.80;92.30;;;;;;5035610;28;20083;-73
2021/10/22 08:05:53;;;;;;;20.45;4.22;;;8.90;92.30;;;;;;5036026;28;20029;-74
2021/10/22 08:08:19;;;;;;;17.15;3.78;;;8.80;92.40;;;;;;5035386;28;20025;-74
2021/10/22 08:10:45;;;;;;;10.82;3.53;;;9.00;92.70;;;;;;5035887;28;20018;-74
2021/10/22 08:13:11;;;;;;;16.20;3.72;;;9.10;92.30;;;;;;5035049;28;20099;-74
2021/10/22 08:15:39;;;;;;;12.50;3.60;;;9.30;92.20;;;;;;5035129;28;20022;-74
2021/10/22 08:18:06;;;;;;;14.73;3.75;;;9.30;92.00;;;;;;5017519;28;20049;-74
2021/10/22 08:20:34;;;;;;;10.55;3.03;;;9.30;91.80;;;;;;5020656;28;20025;-72
2021/10/22 08:23:00;;;;;;;15.75;4.43;;;9.30;92.10;;;;;;5021715;28;20022;-72
2021/10/22 08:25:25;;;;;;;13.63;4.65;;;9.30;91.80;;;;;;5039374;28;20029;-72
2021/10/22 08:27:51;;;;;;;16.92;3.28;;;9.30;91.90;;;;;;5035423;28;20495;-73
2021/10/22 08:30:24;;;;;;;12.43;4.03;;;9.30;91.80;;;;;;5035144;28;20088;-73
2021/10/22 08:32:51;;;;;;;17.85;5.00;;;9.40;91.80;;;;;;5017653;28;20068;-72
2021/10/22 08:35:21;;;;;;;15.07;4.25;;;9.40;91.70;;;;;;5017668;28;20347;-72
2021/10/22 08:37:47;;;;;;;14.50;3.90;;;9.70;91.80;;;;;;5035299;28;20045;-73
2021/10/22 08:40:14;;;;;;;13.55;4.28;;;10.40;91.30;;;;;;5035194;28;20098;-73
2021/10/22 08:42:40;;;;;;;11.50;3.35;;;11.20;89.00;;;;;;5035243;28;20116;-73
2021/10/22 08:45:06;;;;;;;18.67;3.97;;;11.70;86.70;;;;;;5017257;28;20029;-72
2021/10/22 08:47:34;;;;;;;13.73;4.10;;;12.10;82.30;;;;;;5035511;28;20072;-73
2021/10/22 08:50:01;;;;;;;21.45;4.10;;;11.80;82.00;;;;;;5035195;28;20029;-73
2021/10/22 08:52:29;;;;;;;13.98;4.07;;;11.50;83.20;;;;;;5035381;28;20076;-72
2021/10/22 08:54:56;;;;;;;13.02;3.67;;;11.20;84.30;;;;;;5035003;28;20072;-73
2021/10/22 08:57:22;;;;;;;14.07;3.30;;;10.90;85.40;;;;;;5016340;28;20052;-73
2021/10/22 08:59:47;;;;;;;13.38;4.18;;;10.60;87.10;;;;;;5034763;28;20474;-73
2021/10/22 09:02:16;;;;;;;22.15;4.97;;;10.40;87.50;;;;;;5034681;28;20025;-73
2021/10/22 09:04:43;;;;;;;18.38;4.35;;;10.40;88.70;;;;;;5036120;28;20148;-74
2021/10/22 09:07:15;;;;;;;13.80;3.47;;;10.30;88.60;;;;;;5037832;28;20026;-73
2021/10/22 09:09:43;;;;;;;13.32;3.42;;;10.30;89.30;;;;;;5038660;28;20029;-73
2021/10/22 09:12:10;;;;;;;16.80;3.65;;;10.50;89.80;;;;;;5035921;28;20021;-73
2021/10/22 09:14:37;;;;;;;13.75;3.97;;;10.60;89.60;;;;;;5034325;28;20029;-73
2021/10/22 09:17:12;;;;;;;18.08;3.80;;;10.70;87.90;;;;;;5016568;28;20029;-73
2021/10/22 09:19:44;;;;;;;14.80;3.40;;;10.60;87.60;;;;;;5034205;28;20362;-73
2021/10/22 09:22:35;;;;;;;13.38;3.05;;;10.50;88.10;;;;;;5033823;28;20018;-72
2021/10/22 09:25:07;;;;;;;14.80;3.47;;;10.50;88.40;;;;;;5014024;28;20513;-73
2021/10/22 09:27:41;;;;;;;15.70;3.10;;;10.60;88.80;;;;;;5034905;28;20072;-73
2021/10/22 09:30:29;;;;;;;13.57;2.95;;;10.50;89.50;;;;;;5016643;28;20029;-73
2021/10/22 09:33:15;;;;;;;23.58;3.97;;;10.50;88.20;;;;;;5016327;28;20036;-73
2021/10/22 09:35:46;;;;;;;11.55;2.40;;;10.50;89.30;;;;;;5034269;28;20089;-73
2021/10/22 09:38:13;;;;;;;14.30;3.00;;;10.50;89.20;;;;;;5033891;28;20037;-74
2021/10/22 09:40:45;;;;;;;17.17;3.40;;;10.60;88.60;;;;;;5033904;28;20280;-74
2021/10/22 09:43:26;;;;;;;15.82;3.63;;;10.50;90.20;;;;;;5015808;28;20470;-74
2021/10/22 09:46:14;;;;;;;16.65;3.00;;;10.40;89.80;;;;;;5033947;28;20462;-74
2021/10/22 09:48:43;;;;;;;13.40;3.28;;;10.40;90.30;;;;;;5034110;28;20029;-73
2021/10/22 09:51:28;;;;;;;14.15;2.47;;;10.30;90.20;;;;;;5033665;28;20030;-72
2021/10/22 09:53:56;;;;;;;10.95;3.20;;;10.30;90.60;;;;;;5033198;28;20360;-72
2021/10/22 09:56:27;;;;;;;13.00;3.03;;;10.30;90.70;;;;;;5016113;28;20024;-73
2021/10/22 09:59:26;;;;;;;12.63;4.13;;;10.30;90.80;;;;;;5033511;28;20037;-73
2021/10/22 10:01:54;;;;;;;20.33;3.85;;;10.30;90.80;;;;;;5015909;28;20091;-73
2021/10/22 10:04:22;;;;;;;12.48;2.42;;;10.30;91.10;;;;;;5033586;28;20017;-73
2021/10/22 10:06:52;;;;;;;18.52;3.28;;;10.30;91.40;;;;;;5033441;28;20033;-74
2021/10/22 10:09:18;;;;;;;10.50;2.50;;;10.30;91.30;;;;;;5033338;28;20032;-73
2021/10/22 10:11:44;;;;;;;18.02;4.70;;;10.30;91.50;;;;;;5034285;28;20477;-72
2021/10/22 10:14:13;;;;;;;11.93;2.83;;;10.30;91.80;;;;;;5034680;28;20065;-73
2021/10/22 10:16:40;;;;;;;20.83;4.50;;;10.30;91.60;;;;;;5016338;28;20025;-74
2021/10/22 10:19:37;;;;;;;13.10;4.18;;;10.20;91.90;;;;;;5032650;28;20359;-72
2021/10/22 10:22:09;;;;;;;16.23;3.00;;;10.20;92.20;;;;;;5033052;28;20053;-74
2021/10/22 10:24:38;;;;;;;34.38;15.93;;;10.10;92.30;;;;;;5033122;28;20466;-73
2021/10/22 10:27:10;;;;;;;15.18;3.47;;;10.20;92.50;;;;;;5032673;28;20025;-73
2021/10/22 10:29:47;;;;;;;12.95;4.43;;;10.10;92.80;;;;;;5015278;28;20021;-74
2021/10/22 10:32:28;;;;;;;14.60;3.40;;;10.10;92.90;;;;;;5033116;28;20030;-74
2021/10/22 10:34:58;;;;;;;12.38;2.90;;;10.10;93.00;;;;;;5032630;28;20116;-74
2021/10/22 10:37:32;;;;;;;;;;;10.10;93.20;;;;;;5033561;28;20039;-73
2021/10/22 10:40:01;;;;;;;19.92;4.20;;;10.10;93.60;;;;;;5032734;28;19913;-72
2021/10/22 10:42:30;;;;;;;10.82;2.85;;;10.10;93.80;;;;;;5032738;28;20026;-73
2021/10/22 10:44:57;;;;;;;20.88;3.47;;;10.10;93.60;;;;;;5014791;28;20196;-72
2021/10/22 10:47:29;;;;;;;16.58;3.33;;;10.30;93.80;;;;;;5033543;28;20029;-74
2021/10/22 10:49:55;;;;;;;14.82;3.40;;;10.40;93.50;;;;;;5032844;28;20030;-72
2021/10/22 10:52:39;;;;;;;16.83;2.75;;;10.60;94.10;;;;;;5033583;28;20032;-73
2021/10/22 10:55:32;;;;;;;16.90;3.40;;;10.90;93.50;;;;;;5032560;28;20087;-73
2021/10/22 10:58:19;;;;;;;14.57;3.20;;;11.30;93.70;;;;;;5032077;28;20408;-74
2021/10/22 11:00:49;;;;;;;12.98;3.25;;;11.90;92.50;;;;;;5032761;28;20030;-74
2021/10/22 11:03:18;;;;;;;20.67;3.88;;;12.20;91.40;;;;;;5032527;28;20029;-73
2021/10/22 11:05:44;;;;;;;16.58;2.97;;;12.40;90.20;;;;;;5032274;28;20075;-73
2021/10/22 11:08:21;;;;;;;15.25;2.50;;;12.30;90.10;;;;;;5032265;28;20029;-74
2021/10/22 11:11:10;;;;;;;13.65;3.70;;;12.40;90.60;;;;;;5032375;28;20032;-74
2021/10/22 11:13:54;;;;;;;18.48;2.72;;;12.70;90.00;;;;;;5032152;28;20032;-74
2021/10/22 11:16:28;;;;;;;11.35;3.63;;;13.20;88.80;;;;;;5032227;28;20083;-74
2021/10/22 11:19:06;;;;;;;11.68;2.30;;;13.60;86.80;;;;;;5032161;28;20470;-74
2021/10/22 11:21:34;;;;;;;17.48;3.30;;;13.80;85.40;;;;;;5031484;28;20021;-73
2021/10/22 11:24:02;;;;;;;11.82;2.65;;;13.70;85.90;;;;;;5031938;28;20048;-73
2021/10/22 11:26:28;;;;;;;11.00;2.30;;;13.70;86.80;;;;;;5014380;28;20023;-73
2021/10/22 11:29:19;;;;;;;17.05;2.95;;;14.10;85.00;;;;;;5032128;28;20029;-73
2021/10/22 11:31:46;;;;;;;8.20;1.70;;;14.60;84.30;;;;;;5013898;28;20034;-73
2021/10/22 11:34:25;;;;;;;7.63;1.80;;;14.90;82.90;;;;;;5031936;28;20072;-73
2021/10/22 11:36:57;;;;;;;11.13;2.90;;;15.00;81.40;;;;;;5032223;28;20021;-74
2021/10/22 11:39:36;;;;;;;17.35;2.70;;;15.00;79.60;;;;;;5032210;28;20029;-72
2021/10/22 11:42:05;;;;;;;11.93;2.17;;;14.90;79.90;;;;;;5031954;28;20061;-72
2021/10/22 11:44:44;;;;;;;13.80;2.83;;;15.10;79.50;;;;;;5032144;28;20380;-73
2021/10/22 11:47:10;;;;;;;11.32;2.08;;;15.00;76.70;;;;;;5032026;28;20096;-73
2021/10/22 11:49:37;;;;;;;14.60;2.80;;;14.90;78.00;;;;;;5031816;28;20374;-72
2021/10/22 11:52:08;;;;;;;11.13;2.03;;;14.70;82.00;;;;;;5031725;28;20032;-73
2021/10/22 11:54:37;;;;;;;12.52;2.28;;;14.50;79.00;;;;;;5031734;28;20021;-72
2021/10/22 11:57:14;;;;;;;11.05;2.00;;;14.30;81.90;;;;;;5013520;28;20112;-74
2021/10/22 11:59:48;;;;;;;11.95;2.85;;;14.10;83.70;;;;;;5031993;28;20117;-73
2021/10/22 12:02:14;;;;;;;13.07;2.85;;;14.00;82.00;;;;;;5033205;28;20070;-70
2021/10/22 12:04:41;;;;;;;13.98;3.67;;;13.90;80.90;;;;;;5037621;28;20101;-71
2021/10/22 12:07:10;;;;;;;11.00;2.47;;;13.90;81.80;;;;;;5033766;28;20025;-73
2021/10/22 12:09:39;;;;;;;10.80;2.80;;;14.00;80.70;;;;;;5032177;28;20474;-74
2021/10/22 12:12:10;;;;;;;15.07;2.63;;;14.10;82.80;;;;;;5032105;28;20037;-73
2021/10/22 12:14:41;;;;;;;8.25;2.08;;;14.20;80.10;;;;;;5032172;28;20149;-74
2021/10/22 12:17:11;;;;;;;10.13;2.15;;;14.10;81.70;;;;;;5031038;28;20104;-73
2021/10/22 12:19:42;;;;;;;9.63;2.67;;;14.10;79.60;;;;;;5031436;28;20033;-72
2021/10/22 12:22:08;;;;;;;12.82;2.60;;;13.90;82.20;;;;;;5031272;28;20035;-73
2021/10/22 12:24:58;;;;;;;14.45;3.08;;;13.80;78.70;;;;;;5031500;28;20373;-72
2021/10/22 12:27:28;;;;;;;9.68;2.03;;;13.70;79.70;;;;;;5030698;28;20037;-73
2021/10/22 12:29:54;;;;;;;;;;;13.60;81.10;;;;;;5031965;28;20033;-73
2021/10/22 12:32:49;;;;;;;12.07;2.50;;;13.60;83.10;;;;;;5033150;28;19912;-73
2021/10/22 12:35:19;;;;;;;9.68;2.47;;;13.50;81.30;;;;;;5034560;28;20156;-73
2021/10/22 12:37:46;;;;;;;11.63;2.15;;;13.40;81.80;;;;;;5017264;28;20280;-73
2021/10/22 12:40:19;;;;;;;11.63;2.25;;;13.40;82.40;;;;;;5034690;28;20100;-73
2021/10/22 12:42:46;;;;;;;11.27;2.28;;;13.30;82.80;;;;;;5035653;28;20029;-73
2021/10/22 12:45:18;;;;;;;11.00;1.80;;;13.20;81.30;;;;;;5034771;28;20136;-73
2021/10/22 12:47:45;;;;;;;15.43;2.50;;;13.10;84.60;;;;;;5035803;28;20096;-73
2021/10/22 12:50:12;;;;;;;11.63;2.35;;;13.00;83.10;;;;;;5034464;28;20052;-73
2021/10/22 12:52:39;;;;;;;18.17;3.13;;;12.90;84.40;;;;;;5034674;28;20025;-72
2021/10/22 12:55:07;;;;;;;10.80;2.10;;;12.90;85.60;;;;;;5034288;28;20025;-73
2021/10/22 12:57:33;;;;;;;12.27;1.90;;;12.80;85.00;;;;;;5034279;28;20044;-73